sensor_id;sensor_type;location;lat;lon;timestamp;temperature;humidity
17033;DHT22;63208;52.178;21.016;2022-10-31T00:01:26;10.80;99.90
17033;DHT22;63208;52.178;21.016;2022-10-31T00:03:55;10.80;99.90
17033;DHT22;63208;52.178;21.016;2022-10-31T00:06:23;10.70;99.90
17033;DHT22;63208;52.178;21.016;2022-10-31T00:08:52;10.70;99.90
17033;DHT22;63208;52.178;21.016;2022-10-31T00:11:20;10.70;99.90
17033;DHT22;63208;52.178;21.016;2022-10-31T00:13:49;10.70;99.90
17033;DHT22;63208;52.178;21.016;2022-10-31T00:16:16;10.70;99.90
17033;DHT22;63208;52.178;21.016;2022-10-31T00:18:47;10.70;99.90
17033;DHT22;63208;52.178;21.016;2022-10-31T00:21:14;10.70;99.90
17033;DHT22;63208;52.178;21.016;2022-10-31T00:23:41;10.70;99.90
17033;DHT22;63208;52.178;21.016;2022-10-31T00:26:08;10.70;99.90
17033;DHT22;63208;52.178;21.016;2022-10-31T00:28:36;10.70;99.90
17033;DHT22;63208;52.178;21.016;2022-10-31T00:31:06;10.60;99.90
17033;DHT22;63208;52.178;21.016;2022-10-31T00:33:34;10.50;99.90
17033;DHT22;63208;52.178;21.016;2022-10-31T00:36:04;10.50;99.90
17033;DHT22;63208;52.178;21.016;2022-10-31T00:38:31;10.40;99.90
17033;DHT22;63208;52.178;21.016;2022-10-31T00:40:58;10.40;99.90
17033;DHT22;63208;52.178;21.016;2022-10-31T00:43:25;10.40;99.90
17033;DHT22;63208;52.178;21.016;2022-10-31T00:45:52;10.40;99.90
17033;DHT22;63208;52.178;21.016;2022-10-31T00:48:20;10.40;99.90
17033;DHT22;63208;52.178;21.016;2022-10-31T00:50:47;10.30;99.90
17033;DHT22;63208;52.178;21.016;2022-10-31T00:53:14;10.30;99.90
17033;DHT22;63208;52.178;21.016;2022-10-31T00:55:41;10.30;99.90
17033;DHT22;63208;52.178;21.016;2022-10-31T00:58:09;10.30;99.90
17033;DHT22;63208;52.178;21.016;2022-10-31T01:00:36;10.30;99.90
17033;DHT22;63208;52.178;21.016;2022-10-31T01:03:03;10.40;99.90
17033;DHT22;63208;52.178;21.016;2022-10-31T01:05:31;10.40;99.90
17033;DHT22;63208;52.178;21.016;2022-10-31T01:07:59;10.40;99.90
17033;DHT22;63208;52.178;21.016;2022-10-31T01:10:26;10.40;99.90
17033;DHT22;63208;52.178;21.016;2022-10-31T01:12:53;10.40;99.90
17033;DHT22;63208;52.178;21.016;2022-10-31T01:15:21;10.40;99.90
17033;DHT22;63208;52.178;21.016;2022-10-31T01:17:49;10.40;99.90
17033;DHT22;63208;52.178;21.016;2022-10-31T01:20:17;10.30;99.90
17033;DHT22;63208;52.178;21.016;2022-10-31T01:22:45;10.30;99.90
17033;DHT22;63208;52.178;21.016;2022-10-31T01:25:12;10.30;99.90
17033;DHT22;63208;52.178;21.016;2022-10-31T01:27:39;10.30;99.90
17033;DHT22;63208;52.178;21.016;2022-10-31T01:30:07;10.20;99.90
17033;DHT22;63208;52.178;21.016;2022-10-31T01:32:34;10.20;99.90
17033;DHT22;63208;52.178;21.016;2022-10-31T01:35:01;10.20;99.90
17033;DHT22;63208;52.178;21.016;2022-10-31T01:37:28;10.20;99.90
17033;DHT22;63208;52.178;21.016;2022-10-31T01:39:58;10.20;99.90
17033;DHT22;63208;52.178;21.016;2022-10-31T01:42:25;10.20;99.90
17033;DHT22;63208;52.178;21.016;2022-10-31T01:44:56;10.20;99.90
17033;DHT22;63208;52.178;21.016;2022-10-31T01:47:41;10.20;99.90
17033;DHT22;63208;52.178;21.016;2022-10-31T01:50:13;10.20;99.90
17033;DHT22;63208;52.178;21.016;2022-10-31T01:52:44;10.20;99.90
17033;DHT22;63208;52.178;21.016;2022-10-31T01:55:16;10.10;99.90
17033;DHT22;63208;52.178;21.016;2022-10-31T01:57:46;10.10;99.90
17033;DHT22;63208;52.178;21.016;2022-10-31T02:00:15;10.10;99.90
17033;DHT22;63208;52.178;21.016;2022-10-31T02:02:42;10.10;99.90
17033;DHT22;63208;52.178;21.016;2022-10-31T02:05:16;10.10;99.90
17033;DHT22;63208;52.178;21.016;2022-10-31T02:07:48;10.10;99.90
17033;DHT22;63208;52.178;21.016;2022-10-31T02:10:21;10.10;99.90
17033;DHT22;63208;52.178;21.016;2022-10-31T02:12:50;10.10;99.90
17033;DHT22;63208;52.178;21.016;2022-10-31T02:15:18;10.10;99.90
17033;DHT22;63208;52.178;21.016;2022-10-31T02:17:45;10.10;99.90
17033;DHT22;63208;52.178;21.016;2022-10-31T02:20:16;10.10;99.90
17033;DHT22;63208;52.178;21.016;2022-10-31T02:23:08;10.10;99.90
17033;DHT22;63208;52.178;21.016;2022-10-31T02:25:58;10.10;99.90
17033;DHT22;63208;52.178;21.016;2022-10-31T02:28:43;10.10;99.90
17033;DHT22;63208;52.178;21.016;2022-10-31T02:31:23;10.10;99.90
17033;DHT22;63208;52.178;21.016;2022-10-31T02:33:59;10.00;99.90
17033;DHT22;63208;52.178;21.016;2022-10-31T02:36:31;10.00;99.90
17033;DHT22;63208;52.178;21.016;2022-10-31T02:42:02;9.90;99.90
17033;DHT22;63208;52.178;21.016;2022-10-31T02:44:37;9.90;99.90
17033;DHT22;63208;52.178;21.016;2022-10-31T02:47:11;9.90;99.90
17033;DHT22;63208;52.178;21.016;2022-10-31T02:49:42;9.90;99.90
17033;DHT22;63208;52.178;21.016;2022-10-31T02:52:17;9.90;99.90
17033;DHT22;63208;52.178;21.016;2022-10-31T02:54:45;9.90;99.90
17033;DHT22;63208;52.178;21.016;2022-10-31T02:57:13;9.80;99.90
17033;DHT22;63208;52.178;21.016;2022-10-31T02:59:46;9.80;99.90
17033;DHT22;63208;52.178;21.016;2022-10-31T03:02:40;9.80;99.90
17033;DHT22;63208;52.178;21.016;2022-10-31T03:05:39;9.80;99.90
17033;DHT22;63208;52.178;21.016;2022-10-31T03:08:12;9.80;99.90
17033;DHT22;63208;52.178;21.016;2022-10-31T03:10:43;9.70;99.90
17033;DHT22;63208;52.178;21.016;2022-10-31T03:13:17;9.70;99.90
17033;DHT22;63208;52.178;21.016;2022-10-31T03:15:50;9.70;99.90
17033;DHT22;63208;52.178;21.016;2022-10-31T03:18:23;9.70;99.90
17033;DHT22;63208;52.178;21.016;2022-10-31T03:20:55;9.70;99.90
17033;DHT22;63208;52.178;21.016;2022-10-31T03:23:26;9.70;99.90
17033;DHT22;63208;52.178;21.016;2022-10-31T03:25:55;9.70;99.90
17033;DHT22;63208;52.178;21.016;2022-10-31T03:28:27;9.70;99.90
17033;DHT22;63208;52.178;21.016;2022-10-31T03:30:56;9.70;99.90
17033;DHT22;63208;52.178;21.016;2022-10-31T03:33:27;9.70;99.90
17033;DHT22;63208;52.178;21.016;2022-10-31T03:35:57;9.70;99.90
17033;DHT22;63208;52.178;21.016;2022-10-31T03:38:27;9.70;99.90
17033;DHT22;63208;52.178;21.016;2022-10-31T03:40:56;9.70;99.90
17033;DHT22;63208;52.178;21.016;2022-10-31T03:43:29;9.70;99.90
17033;DHT22;63208;52.178;21.016;2022-10-31T03:45:57;9.70;99.90
17033;DHT22;63208;52.178;21.016;2022-10-31T03:48:26;9.60;99.90
17033;DHT22;63208;52.178;21.016;2022-10-31T03:50:59;9.60;99.90
17033;DHT22;63208;52.178;21.016;2022-10-31T03:53:32;9.70;99.90
17033;DHT22;63208;52.178;21.016;2022-10-31T03:56:04;9.60;99.90
17033;DHT22;63208;52.178;21.016;2022-10-31T03:58:36;9.50;99.90
17033;DHT22;63208;52.178;21.016;2022-10-31T04:01:06;9.50;99.90
17033;DHT22;63208;52.178;21.016;2022-10-31T04:03:37;9.50;99.90
17033;DHT22;63208;52.178;21.016;2022-10-31T04:06:08;9.40;99.90
17033;DHT22;63208;52.178;21.016;2022-10-31T04:08:40;9.40;99.90
17033;DHT22;63208;52.178;21.016;2022-10-31T04:11:09;9.40;99.90
17033;DHT22;63208;52.178;21.016;2022-10-31T04:13:40;9.40;99.90
17033;DHT22;63208;52.178;21.016;2022-10-31T04:16:09;9.40;99.90
17033;DHT22;63208;52.178;21.016;2022-10-31T04:18:38;9.50;99.90
17033;DHT22;63208;52.178;21.016;2022-10-31T04:21:06;9.50;99.90
17033;DHT22;63208;52.178;21.016;2022-10-31T04:23:35;9.50;99.90
17033;DHT22;63208;52.178;21.016;2022-10-31T04:26:02;9.50;99.90
17033;DHT22;63208;52.178;21.016;2022-10-31T04:28:29;9.50;99.90
17033;DHT22;63208;52.178;21.016;2022-10-31T04:49:21;9.50;99.90
17033;DHT22;63208;52.178;21.016;2022-10-31T04:51:51;9.40;99.90
17033;DHT22;63208;52.178;21.016;2022-10-31T04:54:18;9.40;99.90
17033;DHT22;63208;52.178;21.016;2022-10-31T04:56:45;9.40;99.90
17033;DHT22;63208;52.178;21.016;2022-10-31T04:59:12;9.40;99.90
17033;DHT22;63208;52.178;21.016;2022-10-31T05:01:40;9.40;99.90
17033;DHT22;63208;52.178;21.016;2022-10-31T05:04:08;9.40;99.90
17033;DHT22;63208;52.178;21.016;2022-10-31T05:06:35;9.40;99.90
17033;DHT22;63208;52.178;21.016;2022-10-31T05:09:02;9.40;99.90
17033;DHT22;63208;52.178;21.016;2022-10-31T05:11:44;9.40;99.90
17033;DHT22;63208;52.178;21.016;2022-10-31T05:14:11;9.40;99.90
17033;DHT22;63208;52.178;21.016;2022-10-31T05:16:40;9.40;99.90
17033;DHT22;63208;52.178;21.016;2022-10-31T05:19:06;9.40;99.90
17033;DHT22;63208;52.178;21.016;2022-10-31T05:21:33;9.40;99.90
17033;DHT22;63208;52.178;21.016;2022-10-31T05:24:01;9.40;99.90
17033;DHT22;63208;52.178;21.016;2022-10-31T05:26:42;9.30;99.90
17033;DHT22;63208;52.178;21.016;2022-10-31T05:29:09;9.30;99.90
17033;DHT22;63208;52.178;21.016;2022-10-31T05:31:36;9.30;99.90
17033;DHT22;63208;52.178;21.016;2022-10-31T05:34:05;9.30;99.90
17033;DHT22;63208;52.178;21.016;2022-10-31T05:36:32;9.20;99.90
17033;DHT22;63208;52.178;21.016;2022-10-31T05:38:59;9.30;99.90
17033;DHT22;63208;52.178;21.016;2022-10-31T05:41:26;9.20;99.90
17033;DHT22;63208;52.178;21.016;2022-10-31T05:43:53;9.20;99.90
17033;DHT22;63208;52.178;21.016;2022-10-31T05:46:20;9.30;99.90
17033;DHT22;63208;52.178;21.016;2022-10-31T05:49:36;9.30;99.90
17033;DHT22;63208;52.178;21.016;2022-10-31T06:07:06;9.20;99.90
17033;DHT22;63208;52.178;21.016;2022-10-31T06:34:08;8.90;99.90
17033;DHT22;63208;52.178;21.016;2022-10-31T06:41:33;8.90;99.90
17033;DHT22;63208;52.178;21.016;2022-10-31T06:48:56;8.90;99.90
17033;DHT22;63208;52.178;21.016;2022-10-31T06:58:47;8.80;99.90
17033;DHT22;63208;52.178;21.016;2022-10-31T07:13:46;9.00;99.90
17033;DHT22;63208;52.178;21.016;2022-10-31T07:26:16;9.30;99.90
17033;DHT22;63208;52.178;21.016;2022-10-31T07:29:01;9.30;99.90
17033;DHT22;63208;52.178;21.016;2022-10-31T07:34:18;9.40;99.90
17033;DHT22;63208;52.178;21.016;2022-10-31T07:37:11;9.50;99.90
17033;DHT22;63208;52.178;21.016;2022-10-31T07:39:59;9.50;99.90
17033;DHT22;63208;52.178;21.016;2022-10-31T07:48:06;6.60;99.90
17033;DHT22;63208;52.178;21.016;2022-10-31T07:50:51;9.60;99.90
17033;DHT22;63208;52.178;21.016;2022-10-31T07:58:15;9.70;99.90
17033;DHT22;63208;52.178;21.016;2022-10-31T08:00:43;9.70;99.90
17033;DHT22;63208;52.178;21.016;2022-10-31T08:03:15;9.70;99.90
17033;DHT22;63208;52.178;21.016;2022-10-31T08:05:48;9.80;99.90
17033;DHT22;63208;52.178;21.016;2022-10-31T08:08:40;9.80;99.90
17033;DHT22;63208;52.178;21.016;2022-10-31T08:11:32;9.90;99.90
17033;DHT22;63208;52.178;21.016;2022-10-31T08:14:40;9.90;99.90
17033;DHT22;63208;52.178;21.016;2022-10-31T08:17:17;9.90;99.90
17033;DHT22;63208;52.178;21.016;2022-10-31T08:26:32;10.00;99.90
17033;DHT22;63208;52.178;21.016;2022-10-31T08:37:17;10.30;99.90
17033;DHT22;63208;52.178;21.016;2022-10-31T08:42:38;10.40;99.90
17033;DHT22;63208;52.178;21.016;2022-10-31T08:45:16;12.20;99.90
17033;DHT22;63208;52.178;21.016;2022-10-31T08:50:28;12.70;99.90
17033;DHT22;63208;52.178;21.016;2022-10-31T08:55:49;10.70;99.90
17033;DHT22;63208;52.178;21.016;2022-10-31T09:01:45;10.80;99.90
17033;DHT22;63208;52.178;21.016;2022-10-31T09:18:06;11.30;99.90
17033;DHT22;63208;52.178;21.016;2022-10-31T09:20:35;11.30;99.90
17033;DHT22;63208;52.178;21.016;2022-10-31T09:23:03;11.60;99.90
17033;DHT22;63208;52.178;21.016;2022-10-31T09:27:56;10.50;99.90
17033;DHT22;63208;52.178;21.016;2022-10-31T09:30:36;11.70;99.90
17033;DHT22;63208;52.178;21.016;2022-10-31T09:36:33;11.90;99.90
17033;DHT22;63208;52.178;21.016;2022-10-31T09:47:13;12.20;99.90
17033;DHT22;63208;52.178;21.016;2022-10-31T09:50:14;12.20;99.90
17033;DHT22;63208;52.178;21.016;2022-10-31T09:52:57;14.60;99.90
17033;DHT22;63208;52.178;21.016;2022-10-31T09:55:41;12.40;99.90
17033;DHT22;63208;52.178;21.016;2022-10-31T09:58:32;12.40;99.90
17033;DHT22;63208;52.178;21.016;2022-10-31T10:03:57;12.40;99.90
17033;DHT22;63208;52.178;21.016;2022-10-31T10:18:36;12.90;99.90
17033;DHT22;63208;52.178;21.016;2022-10-31T10:31:23;13.20;99.90
17033;DHT22;63208;52.178;21.016;2022-10-31T10:34:01;13.30;99.90
17033;DHT22;63208;52.178;21.016;2022-10-31T10:36:35;13.40;99.90
17033;DHT22;63208;52.178;21.016;2022-10-31T10:39:04;13.40;99.90
17033;DHT22;63208;52.178;21.016;2022-10-31T10:41:55;13.50;99.90
17033;DHT22;63208;52.178;21.016;2022-10-31T10:45:06;13.60;99.90
17033;DHT22;63208;52.178;21.016;2022-10-31T10:48:16;13.70;99.90
17033;DHT22;63208;52.178;21.016;2022-10-31T10:50:52;13.80;99.90
17033;DHT22;63208;52.178;21.016;2022-10-31T10:53:37;13.80;99.90
17033;DHT22;63208;52.178;21.016;2022-10-31T10:56:18;13.80;99.90
17033;DHT22;63208;52.178;21.016;2022-10-31T10:59:19;14.00;99.90
17033;DHT22;63208;52.178;21.016;2022-10-31T11:02:08;14.10;99.90
17033;DHT22;63208;52.178;21.016;2022-10-31T11:04:58;14.20;99.90
17033;DHT22;63208;52.178;21.016;2022-10-31T11:07:42;14.20;99.90
17033;DHT22;63208;52.178;21.016;2022-10-31T11:10:13;14.30;99.90
17033;DHT22;63208;52.178;21.016;2022-10-31T11:15:18;14.80;99.90
17033;DHT22;63208;52.178;21.016;2022-10-31T11:17:48;14.70;99.90
17033;DHT22;63208;52.178;21.016;2022-10-31T11:20:31;14.80;99.90
17033;DHT22;63208;52.178;21.016;2022-10-31T11:23:16;14.90;99.90
17033;DHT22;63208;52.178;21.016;2022-10-31T11:25:55;15.00;99.90
17033;DHT22;63208;52.178;21.016;2022-10-31T11:30:53;15.30;99.90
17033;DHT22;63208;52.178;21.016;2022-10-31T11:33:25;15.40;99.90
17033;DHT22;63208;52.178;21.016;2022-10-31T11:35:54;15.50;99.90
17033;DHT22;63208;52.178;21.016;2022-10-31T11:38:25;15.50;99.90
17033;DHT22;63208;52.178;21.016;2022-10-31T11:43:26;15.40;99.90
17033;DHT22;63208;52.178;21.016;2022-10-31T11:48:27;15.20;99.90
17033;DHT22;63208;52.178;21.016;2022-10-31T11:51:07;15.20;99.90
17033;DHT22;63208;52.178;21.016;2022-10-31T11:53:54;15.20;99.90
17033;DHT22;63208;52.178;21.016;2022-10-31T11:59:02;15.20;99.90
17033;DHT22;63208;52.178;21.016;2022-10-31T12:01:32;15.30;99.90
17033;DHT22;63208;52.178;21.016;2022-10-31T12:04:06;15.30;99.90
17033;DHT22;63208;52.178;21.016;2022-10-31T12:07:43;15.40;99.90
17033;DHT22;63208;52.178;21.016;2022-10-31T12:13:05;15.50;99.90
17033;DHT22;63208;52.178;21.016;2022-10-31T12:15:38;15.40;99.90
17033;DHT22;63208;52.178;21.016;2022-10-31T12:18:37;15.50;99.90
17033;DHT22;63208;52.178;21.016;2022-10-31T12:24:52;15.50;99.90
17033;DHT22;63208;52.178;21.016;2022-10-31T12:27:54;15.50;99.90
17033;DHT22;63208;52.178;21.016;2022-10-31T12:37:56;15.30;99.90
17033;DHT22;63208;52.178;21.016;2022-10-31T12:40:39;15.30;99.90
17033;DHT22;63208;52.178;21.016;2022-10-31T12:43:20;15.20;99.90
17033;DHT22;63208;52.178;21.016;2022-10-31T12:45:53;15.20;99.90
17033;DHT22;63208;52.178;21.016;2022-10-31T12:59:15;15.00;99.90
17033;DHT22;63208;52.178;21.016;2022-10-31T13:29:27;15.30;99.90
17033;DHT22;63208;52.178;21.016;2022-10-31T13:32:44;15.30;99.90
17033;DHT22;63208;52.178;21.016;2022-10-31T13:39:12;15.30;99.90
17033;DHT22;63208;52.178;21.016;2022-10-31T13:41:46;15.30;99.90
17033;DHT22;63208;52.178;21.016;2022-10-31T13:44:18;15.30;99.90
17033;DHT22;63208;52.178;21.016;2022-10-31T13:46:47;15.30;99.90
17033;DHT22;63208;52.178;21.016;2022-10-31T13:49:25;15.30;99.90
17033;DHT22;63208;52.178;21.016;2022-10-31T13:58:28;15.20;99.90
17033;DHT22;63208;52.178;21.016;2022-10-31T14:01:16;15.10;99.90
17033;DHT22;63208;52.178;21.016;2022-10-31T14:13:15;14.90;99.90
17033;DHT22;63208;52.178;21.016;2022-10-31T14:15:52;14.60;99.90
17033;DHT22;63208;52.178;21.016;2022-10-31T14:18:23;14.50;99.90
17033;DHT22;63208;52.178;21.016;2022-10-31T14:20:50;14.20;99.90
17033;DHT22;63208;52.178;21.016;2022-10-31T14:26:55;14.00;99.90
17033;DHT22;63208;52.178;21.016;2022-10-31T14:29:26;13.70;99.90
17033;DHT22;63208;52.178;21.016;2022-10-31T14:32:21;13.80;99.90
17033;DHT22;63208;52.178;21.016;2022-10-31T14:35:37;14.90;99.90
17033;DHT22;63208;52.178;21.016;2022-10-31T14:44:51;13.20;99.90
17033;DHT22;63208;52.178;21.016;2022-10-31T14:47:29;13.10;99.90
17033;DHT22;63208;52.178;21.016;2022-10-31T14:50:20;13.00;99.90
17033;DHT22;63208;52.178;21.016;2022-10-31T14:52:51;12.90;99.90
17033;DHT22;63208;52.178;21.016;2022-10-31T14:55:18;13.00;99.90
17033;DHT22;63208;52.178;21.016;2022-10-31T14:57:49;12.90;99.90
17033;DHT22;63208;52.178;21.016;2022-10-31T15:00:21;12.90;99.90
17033;DHT22;63208;52.178;21.016;2022-10-31T15:03:00;12.90;99.90
17033;DHT22;63208;52.178;21.016;2022-10-31T15:05:28;12.90;99.90
17033;DHT22;63208;52.178;21.016;2022-10-31T15:07:57;12.90;99.90
17033;DHT22;63208;52.178;21.016;2022-10-31T15:10:27;12.80;99.90
17033;DHT22;63208;52.178;21.016;2022-10-31T15:18:29;12.80;99.90
17033;DHT22;63208;52.178;21.016;2022-10-31T15:20:56;12.70;99.90
17033;DHT22;63208;52.178;21.016;2022-10-31T15:23:26;12.80;99.90
17033;DHT22;63208;52.178;21.016;2022-10-31T15:26:46;12.80;99.90
17033;DHT22;63208;52.178;21.016;2022-10-31T15:29:17;12.80;99.90
17033;DHT22;63208;52.178;21.016;2022-10-31T15:32:00;12.80;99.90
17033;DHT22;63208;52.178;21.016;2022-10-31T15:34:36;12.80;99.90
17033;DHT22;63208;52.178;21.016;2022-10-31T15:37:25;12.70;99.90
17033;DHT22;63208;52.178;21.016;2022-10-31T15:42:27;12.70;99.90
17033;DHT22;63208;52.178;21.016;2022-10-31T15:45:25;12.70;99.90
17033;DHT22;63208;52.178;21.016;2022-10-31T15:47:56;12.80;99.90
17033;DHT22;63208;52.178;21.016;2022-10-31T16:00:06;12.70;99.90
17033;DHT22;63208;52.178;21.016;2022-10-31T16:05:01;12.70;99.90
17033;DHT22;63208;52.178;21.016;2022-10-31T16:12:46;12.60;99.90
17033;DHT22;63208;52.178;21.016;2022-10-31T16:15:15;12.60;99.90
17033;DHT22;63208;52.178;21.016;2022-10-31T16:17:47;12.60;99.90
17033;DHT22;63208;52.178;21.016;2022-10-31T16:20:20;12.60;99.90
17033;DHT22;63208;52.178;21.016;2022-10-31T16:22:49;12.60;99.90
17033;DHT22;63208;52.178;21.016;2022-10-31T16:25:36;12.60;99.90
17033;DHT22;63208;52.178;21.016;2022-10-31T16:28:17;12.60;99.90
17033;DHT22;63208;52.178;21.016;2022-10-31T16:33:28;12.60;99.90
17033;DHT22;63208;52.178;21.016;2022-10-31T16:35:57;12.70;99.90
17033;DHT22;63208;52.178;21.016;2022-10-31T16:47:13;12.80;99.90
17033;DHT22;63208;52.178;21.016;2022-10-31T16:49:58;12.80;99.90
17033;DHT22;63208;52.178;21.016;2022-10-31T16:52:57;12.80;99.90
17033;DHT22;63208;52.178;21.016;2022-10-31T17:02:26;12.90;99.90
17033;DHT22;63208;52.178;21.016;2022-10-31T17:07:20;13.10;99.90
17033;DHT22;63208;52.178;21.016;2022-10-31T17:12:25;13.00;99.90
17033;DHT22;63208;52.178;21.016;2022-10-31T17:14:56;12.90;99.90
17033;DHT22;63208;52.178;21.016;2022-10-31T17:17:24;12.90;99.90
17033;DHT22;63208;52.178;21.016;2022-10-31T17:22:25;12.90;99.90
17033;DHT22;63208;52.178;21.016;2022-10-31T17:27:19;12.90;99.90
17033;DHT22;63208;52.178;21.016;2022-10-31T17:29:46;13.00;99.90
17033;DHT22;63208;52.178;21.016;2022-10-31T17:35:49;12.90;99.90
17033;DHT22;63208;52.178;21.016;2022-10-31T17:45:39;12.80;99.90
17033;DHT22;63208;52.178;21.016;2022-10-31T17:48:09;12.90;99.90
17033;DHT22;63208;52.178;21.016;2022-10-31T17:51:12;12.90;99.90
17033;DHT22;63208;52.178;21.016;2022-10-31T17:53:46;13.00;99.90
17033;DHT22;63208;52.178;21.016;2022-10-31T17:59:08;12.90;99.90
17033;DHT22;63208;52.178;21.016;2022-10-31T18:04:31;12.90;99.90
17033;DHT22;63208;52.178;21.016;2022-10-31T18:07:00;12.90;99.90
17033;DHT22;63208;52.178;21.016;2022-10-31T18:23:58;12.90;99.90
17033;DHT22;63208;52.178;21.016;2022-10-31T18:26:27;12.90;99.90
17033;DHT22;63208;52.178;21.016;2022-10-31T18:31:22;12.90;99.90
17033;DHT22;63208;52.178;21.016;2022-10-31T18:33:51;12.90;99.90
17033;DHT22;63208;52.178;21.016;2022-10-31T18:36:19;12.70;99.90
17033;DHT22;63208;52.178;21.016;2022-10-31T18:46:11;12.80;99.90
17033;DHT22;63208;52.178;21.016;2022-10-31T18:48:40;13.00;99.90
17033;DHT22;63208;52.178;21.016;2022-10-31T18:51:09;12.90;99.90
17033;DHT22;63208;52.178;21.016;2022-10-31T18:54:09;12.90;99.90
17033;DHT22;63208;52.178;21.016;2022-10-31T18:56:42;12.90;99.90
17033;DHT22;63208;52.178;21.016;2022-10-31T18:59:10;12.90;99.90
17033;DHT22;63208;52.178;21.016;2022-10-31T19:06:32;12.90;99.90
17033;DHT22;63208;52.178;21.016;2022-10-31T19:09:00;13.00;99.90
17033;DHT22;63208;52.178;21.016;2022-10-31T19:12:00;13.00;99.90
17033;DHT22;63208;52.178;21.016;2022-10-31T19:17:04;13.00;99.90
17033;DHT22;63208;52.178;21.016;2022-10-31T19:28:08;13.00;99.90
17033;DHT22;63208;52.178;21.016;2022-10-31T19:42:57;13.00;99.90
17033;DHT22;63208;52.178;21.016;2022-10-31T19:47:56;13.00;99.90
17033;DHT22;63208;52.178;21.016;2022-10-31T20:07:37;13.30;99.90
17033;DHT22;63208;52.178;21.016;2022-10-31T20:10:05;13.10;99.90
17033;DHT22;63208;52.178;21.016;2022-10-31T20:12:33;10.60;99.90
17033;DHT22;63208;52.178;21.016;2022-10-31T20:15:00;13.10;99.90
17033;DHT22;63208;52.178;21.016;2022-10-31T20:17:27;13.00;99.90
17033;DHT22;63208;52.178;21.016;2022-10-31T20:19:55;13.00;99.90
17033;DHT22;63208;52.178;21.016;2022-10-31T20:22:22;13.10;99.90
17033;DHT22;63208;52.178;21.016;2022-10-31T20:24:49;13.10;99.90
17033;DHT22;63208;52.178;21.016;2022-10-31T20:27:16;13.40;99.90
17033;DHT22;63208;52.178;21.016;2022-10-31T20:29:43;12.90;99.90
17033;DHT22;63208;52.178;21.016;2022-10-31T20:34:38;13.10;99.90
17033;DHT22;63208;52.178;21.016;2022-10-31T20:37:06;13.10;99.90
17033;DHT22;63208;52.178;21.016;2022-10-31T20:39:33;13.40;99.90
17033;DHT22;63208;52.178;21.016;2022-10-31T20:42:34;13.00;99.90
17033;DHT22;63208;52.178;21.016;2022-10-31T20:45:01;13.20;99.90
17033;DHT22;63208;52.178;21.016;2022-10-31T20:47:29;13.20;99.90
17033;DHT22;63208;52.178;21.016;2022-10-31T20:52:24;13.30;99.90
17033;DHT22;63208;52.178;21.016;2022-10-31T20:59:46;13.20;99.90
17033;DHT22;63208;52.178;21.016;2022-10-31T21:02:13;13.20;99.90
17033;DHT22;63208;52.178;21.016;2022-10-31T21:04:40;13.20;99.90
17033;DHT22;63208;52.178;21.016;2022-10-31T21:14:50;13.20;99.90
17033;DHT22;63208;52.178;21.016;2022-10-31T22:01:30;13.10;99.90
17033;DHT22;63208;52.178;21.016;2022-10-31T22:03:58;13.10;99.90
17033;DHT22;63208;52.178;21.016;2022-10-31T22:06:29;13.10;99.90
17033;DHT22;63208;52.178;21.016;2022-10-31T22:08:58;13.20;99.90
17033;DHT22;63208;52.178;21.016;2022-10-31T22:13:53;13.40;99.90
17033;DHT22;63208;52.178;21.016;2022-10-31T22:16:22;13.10;99.90
17033;DHT22;63208;52.178;21.016;2022-10-31T22:18:53;13.10;99.90
17033;DHT22;63208;52.178;21.016;2022-10-31T22:21:22;13.10;99.90
17033;DHT22;63208;52.178;21.016;2022-10-31T22:23:50;13.00;99.90
17033;DHT22;63208;52.178;21.016;2022-10-31T22:26:18;13.00;99.90
17033;DHT22;63208;52.178;21.016;2022-10-31T22:28:46;13.00;99.90
17033;DHT22;63208;52.178;21.016;2022-10-31T22:38:40;13.00;99.90
17033;DHT22;63208;52.178;21.016;2022-10-31T22:41:08;12.90;99.90
17033;DHT22;63208;52.178;21.016;2022-10-31T22:46:04;13.00;99.90
17033;DHT22;63208;52.178;21.016;2022-10-31T22:48:35;13.00;99.90
17033;DHT22;63208;52.178;21.016;2022-10-31T22:51:03;13.00;99.90
17033;DHT22;63208;52.178;21.016;2022-10-31T22:53:32;12.90;99.90
17033;DHT22;63208;52.178;21.016;2022-10-31T22:58:28;12.90;99.90
17033;DHT22;63208;52.178;21.016;2022-10-31T23:03:23;12.90;99.90
17033;DHT22;63208;52.178;21.016;2022-10-31T23:05:54;12.90;99.90
17033;DHT22;63208;52.178;21.016;2022-10-31T23:10:50;12.90;99.90
17033;DHT22;63208;52.178;21.016;2022-10-31T23:13:17;12.80;99.90
17033;DHT22;63208;52.178;21.016;2022-10-31T23:16:04;12.70;99.90
17033;DHT22;63208;52.178;21.016;2022-10-31T23:25:56;12.60;99.90
17033;DHT22;63208;52.178;21.016;2022-10-31T23:41:00;12.70;99.90
17033;DHT22;63208;52.178;21.016;2022-10-31T23:53:19;12.60;99.90
17033;DHT22;63208;52.178;21.016;2022-10-31T23:58:15;12.40;99.90
